Spruce Pine, NC

8:23 AM EST on February 06, 2016 (GMT -0500)
Grassy Creek | | Change Station
CLOSE
Current Station
Personal Weather Station
Location: Spruce Pine, NC
Elevation: 2730 ft
Nearby Weather Stations

Elev 2730 ft 35.87 °N, 82.06 °W | Updated 11 seconds ago

Mostly Cloudy
Mostly Cloudy
22.5 °F
Feels Like 22 °F
N
0.0
Wind Variable Wind from SSW
Gusts 0.0 mph

Today
High -- | Low -- °F
--% Chance of Precip.
Yesterday
High -- | Low -- °F
Precip. -- in
Pressure 30.46 in
Visibility 10.0 miles
Clouds Clear
Windchill 22 °F
Dew Point 20 °F
Humidity 89%
Rainfall 0.00 in
Snow Depth Not available.
7:24 AM 6:00 PM
Waning Crescent, 5% visible
METAR KMRN 061315Z AUTO 00000KT 10SM CLR M04/M05 A3046 RMK AO2 T10421051
Pressure 30.46 in
Visibility 10.0 miles
Clouds Clear
Windchill 22 °F
Dew Point 20 °F
Humidity 89%
Rainfall 0.00 in
Snow Depth Not available.
7:24 AM 6:00 PM
Waning Crescent, 5% visible
METAR KMRN 061315Z AUTO 00000KT 10SM CLR M04/M05 A3046 RMK AO2 T10421051

10-Day Weather Forecast

Almanac

Astronomy

Feb. 06, 2016 Rise Set
Actual Time
Civil Twilight
Nautical Twilight
Astronomical Twilight
Moon
Length of Visible Light
Length of Day
Tomorrow will be .
, % of the Moon is Illuminated

Today's Extremes

State Highs State Lows

Community

WunderPhotos

Upload Photos

1,890,965 photos uploaded!

WunderBlog® & News

Nearby

Air Quality

  Air Quality AQ Index Pollutant
Not available.

Snow Depth

Station Depth Elevation

Earthquake Activity

City Distance Mag. Time & Date
Minimum magnitude displayed is 2.5.

Coastal Water Temperatures

Place Temperature

Stations

Nearby Weather Stations

Station Location Temp. Windchill Dew Point Humidity Wind Precip. Elev Updated Type
                   

Watches & Warnings

There are currently no watches in effect.